sensor_id;sensor_type;location;lat;lon;timestamp;P1;durP1;ratioP1;P2;durP2;ratioP2
16612;SDS011;8419;52.358;9.752;2023-02-08T00:02:12;29.23;;;16.90;;
16612;SDS011;8419;52.358;9.752;2023-02-08T00:04:57;34.83;;;17.43;;
16612;SDS011;8419;52.358;9.752;2023-02-08T00:07:42;32.63;;;16.57;;
16612;SDS011;8419;52.358;9.752;2023-02-08T00:10:28;34.30;;;17.10;;
16612;SDS011;8419;52.358;9.752;2023-02-08T00:13:13;34.77;;;16.70;;
16612;SDS011;8419;52.358;9.752;2023-02-08T00:15:58;33.73;;;16.33;;
16612;SDS011;8419;52.358;9.752;2023-02-08T00:18:44;31.87;;;16.87;;
16612;SDS011;8419;52.358;9.752;2023-02-08T00:21:29;32.63;;;16.50;;
16612;SDS011;8419;52.358;9.752;2023-02-08T00:24:14;32.90;;;16.07;;
16612;SDS011;8419;52.358;9.752;2023-02-08T00:27:00;31.57;;;16.40;;
16612;SDS011;8419;52.358;9.752;2023-02-08T00:29:45;34.03;;;16.20;;
16612;SDS011;8419;52.358;9.752;2023-02-08T00:32:30;34.33;;;15.83;;
16612;SDS011;8419;52.358;9.752;2023-02-08T00:35:15;30.87;;;14.97;;
16612;SDS011;8419;52.358;9.752;2023-02-08T00:38:01;28.53;;;14.63;;
16612;SDS011;8419;52.358;9.752;2023-02-08T00:40:46;26.60;;;13.80;;
16612;SDS011;8419;52.358;9.752;2023-02-08T00:43:31;28.23;;;14.80;;
16612;SDS011;8419;52.358;9.752;2023-02-08T00:46:16;29.20;;;13.97;;
16612;SDS011;8419;52.358;9.752;2023-02-08T00:49:03;28.70;;;14.23;;
16612;SDS011;8419;52.358;9.752;2023-02-08T00:51:49;26.77;;;14.20;;
16612;SDS011;8419;52.358;9.752;2023-02-08T00:54:34;24.77;;;13.50;;
16612;SDS011;8419;52.358;9.752;2023-02-08T00:57:20;24.40;;;13.10;;
16612;SDS011;8419;52.358;9.752;2023-02-08T01:00:06;25.30;;;13.80;;
16612;SDS011;8419;52.358;9.752;2023-02-08T01:02:54;25.70;;;13.73;;
16612;SDS011;8419;52.358;9.752;2023-02-08T01:05:39;22.70;;;13.97;;
16612;SDS011;8419;52.358;9.752;2023-02-08T01:08:24;22.67;;;12.73;;
16612;SDS011;8419;52.358;9.752;2023-02-08T01:11:10;18.53;;;11.37;;
16612;SDS011;8419;52.358;9.752;2023-02-08T01:14:00;23.40;;;13.20;;
16612;SDS011;8419;52.358;9.752;2023-02-08T01:16:45;26.00;;;13.17;;
16612;SDS011;8419;52.358;9.752;2023-02-08T01:19:31;26.53;;;14.13;;
16612;SDS011;8419;52.358;9.752;2023-02-08T01:22:16;24.47;;;12.73;;
16612;SDS011;8419;52.358;9.752;2023-02-08T01:25:02;22.40;;;12.40;;
16612;SDS011;8419;52.358;9.752;2023-02-08T01:27:47;25.27;;;12.90;;
16612;SDS011;8419;52.358;9.752;2023-02-08T01:30:32;27.93;;;14.30;;
16612;SDS011;8419;52.358;9.752;2023-02-08T01:33:18;24.30;;;13.47;;
16612;SDS011;8419;52.358;9.752;2023-02-08T01:36:04;27.53;;;14.73;;
16612;SDS011;8419;52.358;9.752;2023-02-08T01:38:50;30.17;;;16.20;;
16612;SDS011;8419;52.358;9.752;2023-02-08T01:41:36;31.17;;;14.33;;
16612;SDS011;8419;52.358;9.752;2023-02-08T01:47:46;29.27;;;16.50;;
16612;SDS011;8419;52.358;9.752;2023-02-08T01:50:37;43.60;;;19.03;;
16612;SDS011;8419;52.358;9.752;2023-02-08T01:53:29;27.93;;;15.80;;
16612;SDS011;8419;52.358;9.752;2023-02-08T01:56:18;29.70;;;15.57;;
16612;SDS011;8419;52.358;9.752;2023-02-08T01:59:08;32.97;;;15.53;;
16612;SDS011;8419;52.358;9.752;2023-02-08T02:01:57;27.80;;;14.90;;
16612;SDS011;8419;52.358;9.752;2023-02-08T02:04:44;32.63;;;15.70;;
16612;SDS011;8419;52.358;9.752;2023-02-08T02:07:31;38.90;;;18.23;;
16612;SDS011;8419;52.358;9.752;2023-02-08T02:10:17;40.67;;;17.47;;
16612;SDS011;8419;52.358;9.752;2023-02-08T02:13:07;26.60;;;15.20;;
16612;SDS011;8419;52.358;9.752;2023-02-08T02:15:55;32.27;;;16.03;;
16612;SDS011;8419;52.358;9.752;2023-02-08T02:18:40;28.83;;;15.77;;
16612;SDS011;8419;52.358;9.752;2023-02-08T02:21:33;28.20;;;14.03;;
16612;SDS011;8419;52.358;9.752;2023-02-08T02:24:54;32.70;;;15.17;;
16612;SDS011;8419;52.358;9.752;2023-02-08T02:31:33;28.30;;;15.07;;
16612;SDS011;8419;52.358;9.752;2023-02-08T02:34:37;27.60;;;15.37;;
16612;SDS011;8419;52.358;9.752;2023-02-08T02:37:31;28.47;;;14.97;;
16612;SDS011;8419;52.358;9.752;2023-02-08T02:40:33;32.07;;;15.37;;
16612;SDS011;8419;52.358;9.752;2023-02-08T02:43:29;28.27;;;14.00;;
16612;SDS011;8419;52.358;9.752;2023-02-08T02:46:26;30.17;;;15.10;;
16612;SDS011;8419;52.358;9.752;2023-02-08T02:49:21;30.37;;;15.43;;
16612;SDS011;8419;52.358;9.752;2023-02-08T02:52:13;33.37;;;15.63;;
16612;SDS011;8419;52.358;9.752;2023-02-08T02:55:04;27.50;;;16.23;;
16612;SDS011;8419;52.358;9.752;2023-02-08T02:57:53;27.40;;;14.07;;
16612;SDS011;8419;52.358;9.752;2023-02-08T03:00:42;29.57;;;15.63;;
16612;SDS011;8419;52.358;9.752;2023-02-08T03:03:30;36.23;;;18.07;;
16612;SDS011;8419;52.358;9.752;2023-02-08T03:06:19;57.53;;;28.63;;
16612;SDS011;8419;52.358;9.752;2023-02-08T03:09:21;51.53;;;27.50;;
16612;SDS011;8419;52.358;9.752;2023-02-08T03:12:19;46.87;;;27.37;;
16612;SDS011;8419;52.358;9.752;2023-02-08T03:15:14;46.50;;;24.60;;
16612;SDS011;8419;52.358;9.752;2023-02-08T03:18:09;39.57;;;21.60;;
16612;SDS011;8419;52.358;9.752;2023-02-08T03:21:09;32.17;;;19.23;;
16612;SDS011;8419;52.358;9.752;2023-02-08T03:24:04;31.83;;;16.37;;
16612;SDS011;8419;52.358;9.752;2023-02-08T03:27:00;28.10;;;15.57;;
16612;SDS011;8419;52.358;9.752;2023-02-08T03:29:55;32.20;;;15.50;;
16612;SDS011;8419;52.358;9.752;2023-02-08T03:32:47;29.67;;;15.33;;
16612;SDS011;8419;52.358;9.752;2023-02-08T03:35:40;28.23;;;14.87;;
16612;SDS011;8419;52.358;9.752;2023-02-08T03:38:30;34.90;;;15.50;;
16612;SDS011;8419;52.358;9.752;2023-02-08T03:41:21;31.23;;;15.53;;
16612;SDS011;8419;52.358;9.752;2023-02-08T03:44:10;26.70;;;14.27;;
16612;SDS011;8419;52.358;9.752;2023-02-08T03:47:00;30.30;;;14.73;;
16612;SDS011;8419;52.358;9.752;2023-02-08T03:49:50;26.07;;;14.00;;
16612;SDS011;8419;52.358;9.752;2023-02-08T03:52:37;25.73;;;13.33;;
16612;SDS011;8419;52.358;9.752;2023-02-08T03:55:24;26.53;;;13.80;;
16612;SDS011;8419;52.358;9.752;2023-02-08T03:58:15;24.63;;;13.83;;
16612;SDS011;8419;52.358;9.752;2023-02-08T04:01:06;25.47;;;13.37;;
16612;SDS011;8419;52.358;9.752;2023-02-08T04:03:56;26.63;;;13.27;;
16612;SDS011;8419;52.358;9.752;2023-02-08T04:06:43;28.63;;;13.37;;
16612;SDS011;8419;52.358;9.752;2023-02-08T04:09:29;21.90;;;11.97;;
16612;SDS011;8419;52.358;9.752;2023-02-08T04:12:14;27.80;;;14.27;;
16612;SDS011;8419;52.358;9.752;2023-02-08T04:15:00;25.00;;;12.87;;
16612;SDS011;8419;52.358;9.752;2023-02-08T04:17:45;23.07;;;12.77;;
16612;SDS011;8419;52.358;9.752;2023-02-08T04:20:30;32.27;;;14.53;;
16612;SDS011;8419;52.358;9.752;2023-02-08T04:23:15;24.53;;;13.73;;
16612;SDS011;8419;52.358;9.752;2023-02-08T04:26:00;24.80;;;12.17;;
16612;SDS011;8419;52.358;9.752;2023-02-08T04:28:46;25.83;;;13.90;;
16612;SDS011;8419;52.358;9.752;2023-02-08T04:31:31;25.93;;;14.13;;
16612;SDS011;8419;52.358;9.752;2023-02-08T04:34:17;24.23;;;12.70;;
16612;SDS011;8419;52.358;9.752;2023-02-08T04:37:03;25.23;;;13.60;;
16612;SDS011;8419;52.358;9.752;2023-02-08T04:39:48;25.33;;;13.07;;
16612;SDS011;8419;52.358;9.752;2023-02-08T04:42:34;26.40;;;13.27;;
16612;SDS011;8419;52.358;9.752;2023-02-08T04:45:19;24.27;;;13.07;;
16612;SDS011;8419;52.358;9.752;2023-02-08T04:48:04;25.87;;;12.97;;
16612;SDS011;8419;52.358;9.752;2023-02-08T04:50:50;30.03;;;12.63;;
16612;SDS011;8419;52.358;9.752;2023-02-08T04:53:39;23.20;;;13.23;;
16612;SDS011;8419;52.358;9.752;2023-02-08T04:56:24;25.57;;;12.40;;
16612;SDS011;8419;52.358;9.752;2023-02-08T04:59:09;26.60;;;13.60;;
16612;SDS011;8419;52.358;9.752;2023-02-08T05:01:54;23.80;;;11.67;;
16612;SDS011;8419;52.358;9.752;2023-02-08T05:04:39;22.97;;;12.53;;
16612;SDS011;8419;52.358;9.752;2023-02-08T05:07:25;25.60;;;13.53;;
16612;SDS011;8419;52.358;9.752;2023-02-08T05:10:10;23.60;;;12.73;;
16612;SDS011;8419;52.358;9.752;2023-02-08T05:12:56;39.77;;;17.73;;
16612;SDS011;8419;52.358;9.752;2023-02-08T05:15:41;25.73;;;12.33;;
16612;SDS011;8419;52.358;9.752;2023-02-08T05:18:27;25.87;;;12.87;;
16612;SDS011;8419;52.358;9.752;2023-02-08T05:21:12;24.47;;;12.87;;
16612;SDS011;8419;52.358;9.752;2023-02-08T05:23:57;24.77;;;12.43;;
16612;SDS011;8419;52.358;9.752;2023-02-08T05:26:43;26.33;;;12.77;;
16612;SDS011;8419;52.358;9.752;2023-02-08T05:29:29;22.33;;;11.93;;
16612;SDS011;8419;52.358;9.752;2023-02-08T05:32:14;23.43;;;12.70;;
16612;SDS011;8419;52.358;9.752;2023-02-08T05:34:59;26.77;;;12.83;;
16612;SDS011;8419;52.358;9.752;2023-02-08T05:37:45;20.97;;;11.10;;
16612;SDS011;8419;52.358;9.752;2023-02-08T05:40:30;22.30;;;11.80;;
16612;SDS011;8419;52.358;9.752;2023-02-08T05:43:16;24.43;;;11.90;;
16612;SDS011;8419;52.358;9.752;2023-02-08T05:46:01;22.33;;;11.90;;
16612;SDS011;8419;52.358;9.752;2023-02-08T05:48:47;24.33;;;12.90;;
16612;SDS011;8419;52.358;9.752;2023-02-08T05:51:32;20.90;;;12.07;;
16612;SDS011;8419;52.358;9.752;2023-02-08T05:54:17;30.43;;;13.20;;
16612;SDS011;8419;52.358;9.752;2023-02-08T05:57:03;24.10;;;12.73;;
16612;SDS011;8419;52.358;9.752;2023-02-08T05:59:49;22.90;;;12.30;;
16612;SDS011;8419;52.358;9.752;2023-02-08T06:02:34;25.20;;;12.70;;
16612;SDS011;8419;52.358;9.752;2023-02-08T06:05:20;22.47;;;12.73;;
16612;SDS011;8419;52.358;9.752;2023-02-08T06:08:05;25.73;;;12.67;;
16612;SDS011;8419;52.358;9.752;2023-02-08T06:10:51;21.77;;;12.63;;
16612;SDS011;8419;52.358;9.752;2023-02-08T06:13:38;31.80;;;14.73;;
16612;SDS011;8419;52.358;9.752;2023-02-08T06:16:23;28.00;;;12.87;;
16612;SDS011;8419;52.358;9.752;2023-02-08T06:19:09;25.10;;;12.50;;
16612;SDS011;8419;52.358;9.752;2023-02-08T06:21:54;27.60;;;13.33;;
16612;SDS011;8419;52.358;9.752;2023-02-08T06:24:40;26.13;;;13.67;;
16612;SDS011;8419;52.358;9.752;2023-02-08T06:27:25;24.80;;;12.33;;
16612;SDS011;8419;52.358;9.752;2023-02-08T06:30:13;25.20;;;13.20;;
16612;SDS011;8419;52.358;9.752;2023-02-08T06:33:00;24.57;;;13.43;;
16612;SDS011;8419;52.358;9.752;2023-02-08T06:35:45;25.20;;;12.90;;
16612;SDS011;8419;52.358;9.752;2023-02-08T06:38:34;28.10;;;13.03;;
16612;SDS011;8419;52.358;9.752;2023-02-08T06:41:20;27.87;;;13.63;;
16612;SDS011;8419;52.358;9.752;2023-02-08T06:44:05;29.07;;;14.97;;
16612;SDS011;8419;52.358;9.752;2023-02-08T06:46:50;26.67;;;13.77;;
16612;SDS011;8419;52.358;9.752;2023-02-08T06:49:36;27.47;;;14.23;;
16612;SDS011;8419;52.358;9.752;2023-02-08T06:52:21;26.37;;;12.67;;
16612;SDS011;8419;52.358;9.752;2023-02-08T06:55:07;28.27;;;14.13;;
16612;SDS011;8419;52.358;9.752;2023-02-08T06:57:53;30.70;;;14.17;;
16612;SDS011;8419;52.358;9.752;2023-02-08T07:00:39;26.37;;;14.60;;
16612;SDS011;8419;52.358;9.752;2023-02-08T07:03:24;27.20;;;13.43;;
16612;SDS011;8419;52.358;9.752;2023-02-08T07:06:13;32.87;;;15.00;;
16612;SDS011;8419;52.358;9.752;2023-02-08T07:08:59;31.63;;;15.17;;
16612;SDS011;8419;52.358;9.752;2023-02-08T07:11:47;32.00;;;14.47;;
16612;SDS011;8419;52.358;9.752;2023-02-08T07:14:33;29.77;;;14.13;;
16612;SDS011;8419;52.358;9.752;2023-02-08T07:17:19;29.27;;;13.47;;
16612;SDS011;8419;52.358;9.752;2023-02-08T07:20:05;34.63;;;13.73;;
16612;SDS011;8419;52.358;9.752;2023-02-08T07:22:51;30.67;;;14.90;;
16612;SDS011;8419;52.358;9.752;2023-02-08T07:25:38;28.03;;;14.63;;
16612;SDS011;8419;52.358;9.752;2023-02-08T07:28:24;28.47;;;13.33;;
16612;SDS011;8419;52.358;9.752;2023-02-08T07:31:10;28.60;;;14.33;;
16612;SDS011;8419;52.358;9.752;2023-02-08T07:33:58;26.57;;;13.53;;
16612;SDS011;8419;52.358;9.752;2023-02-08T07:36:43;33.17;;;16.03;;
16612;SDS011;8419;52.358;9.752;2023-02-08T07:39:29;27.50;;;14.13;;
16612;SDS011;8419;52.358;9.752;2023-02-08T07:42:15;28.23;;;13.80;;
16612;SDS011;8419;52.358;9.752;2023-02-08T07:45:01;27.90;;;14.20;;
16612;SDS011;8419;52.358;9.752;2023-02-08T07:47:47;29.10;;;13.93;;
16612;SDS011;8419;52.358;9.752;2023-02-08T07:50:33;31.27;;;14.83;;
16612;SDS011;8419;52.358;9.752;2023-02-08T07:53:18;29.57;;;14.00;;
16612;SDS011;8419;52.358;9.752;2023-02-08T07:56:03;27.33;;;14.40;;
16612;SDS011;8419;52.358;9.752;2023-02-08T07:58:49;29.40;;;13.37;;
16612;SDS011;8419;52.358;9.752;2023-02-08T08:01:35;28.57;;;14.13;;
16612;SDS011;8419;52.358;9.752;2023-02-08T08:04:20;24.10;;;13.33;;
16612;SDS011;8419;52.358;9.752;2023-02-08T08:07:06;25.33;;;12.67;;
16612;SDS011;8419;52.358;9.752;2023-02-08T08:09:51;28.67;;;13.77;;
16612;SDS011;8419;52.358;9.752;2023-02-08T08:12:37;25.80;;;13.77;;
16612;SDS011;8419;52.358;9.752;2023-02-08T08:15:22;25.40;;;13.07;;
16612;SDS011;8419;52.358;9.752;2023-02-08T08:18:08;26.23;;;13.43;;
16612;SDS011;8419;52.358;9.752;2023-02-08T08:20:53;25.97;;;13.07;;
16612;SDS011;8419;52.358;9.752;2023-02-08T08:23:38;27.90;;;12.40;;
16612;SDS011;8419;52.358;9.752;2023-02-08T08:26:24;26.27;;;12.67;;
16612;SDS011;8419;52.358;9.752;2023-02-08T08:29:09;29.63;;;12.77;;
16612;SDS011;8419;52.358;9.752;2023-02-08T08:31:55;22.93;;;11.90;;
16612;SDS011;8419;52.358;9.752;2023-02-08T08:34:40;33.43;;;13.43;;
16612;SDS011;8419;52.358;9.752;2023-02-08T08:37:25;28.13;;;14.20;;
16612;SDS011;8419;52.358;9.752;2023-02-08T08:40:11;29.70;;;13.87;;
16612;SDS011;8419;52.358;9.752;2023-02-08T08:42:56;23.63;;;12.20;;
16612;SDS011;8419;52.358;9.752;2023-02-08T08:45:41;27.23;;;12.10;;
16612;SDS011;8419;52.358;9.752;2023-02-08T08:48:27;22.03;;;12.00;;
16612;SDS011;8419;52.358;9.752;2023-02-08T08:51:12;23.93;;;11.63;;
16612;SDS011;8419;52.358;9.752;2023-02-08T08:53:58;22.10;;;12.23;;
16612;SDS011;8419;52.358;9.752;2023-02-08T08:56:43;26.40;;;11.50;;
16612;SDS011;8419;52.358;9.752;2023-02-08T08:59:29;21.83;;;12.03;;
16612;SDS011;8419;52.358;9.752;2023-02-08T09:02:14;22.73;;;12.20;;
16612;SDS011;8419;52.358;9.752;2023-02-08T09:05:00;21.23;;;11.23;;
16612;SDS011;8419;52.358;9.752;2023-02-08T09:07:47;18.40;;;10.43;;
16612;SDS011;8419;52.358;9.752;2023-02-08T09:10:32;21.73;;;11.17;;
16612;SDS011;8419;52.358;9.752;2023-02-08T09:13:17;23.57;;;11.47;;
16612;SDS011;8419;52.358;9.752;2023-02-08T09:16:04;28.83;;;11.60;;
16612;SDS011;8419;52.358;9.752;2023-02-08T09:18:50;20.93;;;10.67;;
16612;SDS011;8419;52.358;9.752;2023-02-08T09:21:36;22.40;;;11.53;;
16612;SDS011;8419;52.358;9.752;2023-02-08T09:24:23;19.47;;;10.30;;
16612;SDS011;8419;52.358;9.752;2023-02-08T09:27:08;24.03;;;10.97;;
16612;SDS011;8419;52.358;9.752;2023-02-08T09:29:54;20.43;;;10.40;;
16612;SDS011;8419;52.358;9.752;2023-02-08T09:32:39;22.33;;;10.53;;
16612;SDS011;8419;52.358;9.752;2023-02-08T09:35:25;19.63;;;10.77;;
16612;SDS011;8419;52.358;9.752;2023-02-08T09:38:10;25.43;;;10.77;;
16612;SDS011;8419;52.358;9.752;2023-02-08T09:40:58;25.30;;;9.63;;
16612;SDS011;8419;52.358;9.752;2023-02-08T09:43:55;22.57;;;10.50;;
16612;SDS011;8419;52.358;9.752;2023-02-08T09:46:54;24.40;;;10.30;;
16612;SDS011;8419;52.358;9.752;2023-02-08T09:49:46;27.77;;;10.23;;
16612;SDS011;8419;52.358;9.752;2023-02-08T09:52:40;17.83;;;10.10;;
16612;SDS011;8419;52.358;9.752;2023-02-08T09:55:31;19.17;;;10.50;;
16612;SDS011;8419;52.358;9.752;2023-02-08T09:58:22;23.07;;;9.73;;
16612;SDS011;8419;52.358;9.752;2023-02-08T10:01:11;26.30;;;10.83;;
16612;SDS011;8419;52.358;9.752;2023-02-08T10:04:04;27.10;;;10.47;;
16612;SDS011;8419;52.358;9.752;2023-02-08T10:06:55;20.47;;;9.43;;
16612;SDS011;8419;52.358;9.752;2023-02-08T10:09:40;14.80;;;8.23;;
16612;SDS011;8419;52.358;9.752;2023-02-08T10:12:29;22.37;;;9.93;;
16612;SDS011;8419;52.358;9.752;2023-02-08T10:15:24;22.17;;;9.93;;
16612;SDS011;8419;52.358;9.752;2023-02-08T10:18:21;19.80;;;9.30;;
16612;SDS011;8419;52.358;9.752;2023-02-08T10:21:19;21.07;;;9.80;;
16612;SDS011;8419;52.358;9.752;2023-02-08T10:24:16;20.43;;;9.13;;
16612;SDS011;8419;52.358;9.752;2023-02-08T10:27:14;16.57;;;8.37;;
16612;SDS011;8419;52.358;9.752;2023-02-08T10:30:07;20.73;;;9.40;;
16612;SDS011;8419;52.358;9.752;2023-02-08T10:33:02;23.20;;;12.10;;
16612;SDS011;8419;52.358;9.752;2023-02-08T10:35:50;17.60;;;9.60;;
16612;SDS011;8419;52.358;9.752;2023-02-08T10:38:38;21.23;;;9.40;;
16612;SDS011;8419;52.358;9.752;2023-02-08T10:41:26;16.50;;;8.73;;
16612;SDS011;8419;52.358;9.752;2023-02-08T10:44:18;17.03;;;8.97;;
16612;SDS011;8419;52.358;9.752;2023-02-08T10:47:11;13.90;;;8.63;;
16612;SDS011;8419;52.358;9.752;2023-02-08T10:50:03;16.83;;;9.30;;
16612;SDS011;8419;52.358;9.752;2023-02-08T10:52:54;16.17;;;8.53;;
16612;SDS011;8419;52.358;9.752;2023-02-08T10:55:40;15.40;;;8.13;;
16612;SDS011;8419;52.358;9.752;2023-02-08T10:58:26;19.30;;;9.27;;
16612;SDS011;8419;52.358;9.752;2023-02-08T11:01:11;16.67;;;8.67;;
16612;SDS011;8419;52.358;9.752;2023-02-08T11:04:00;15.93;;;8.47;;
16612;SDS011;8419;52.358;9.752;2023-02-08T11:06:48;17.03;;;7.77;;
16612;SDS011;8419;52.358;9.752;2023-02-08T11:09:37;16.53;;;8.27;;
16612;SDS011;8419;52.358;9.752;2023-02-08T11:12:22;15.97;;;8.43;;
16612;SDS011;8419;52.358;9.752;2023-02-08T11:15:17;18.20;;;7.77;;
16612;SDS011;8419;52.358;9.752;2023-02-08T11:18:06;20.43;;;10.63;;
16612;SDS011;8419;52.358;9.752;2023-02-08T11:21:03;24.50;;;9.03;;
16612;SDS011;8419;52.358;9.752;2023-02-08T11:23:52;15.70;;;7.60;;
16612;SDS011;8419;52.358;9.752;2023-02-08T11:26:38;15.43;;;7.87;;
16612;SDS011;8419;52.358;9.752;2023-02-08T11:29:25;16.07;;;8.60;;
16612;SDS011;8419;52.358;9.752;2023-02-08T11:32:14;19.52;;;9.15;;
16612;SDS011;8419;52.358;9.752;2023-02-08T11:35:04;18.97;;;8.47;;
16612;SDS011;8419;52.358;9.752;2023-02-08T11:37:56;15.57;;;9.00;;
16612;SDS011;8419;52.358;9.752;2023-02-08T11:40:43;19.50;;;9.23;;
16612;SDS011;8419;52.358;9.752;2023-02-08T11:43:30;16.27;;;8.67;;
16612;SDS011;8419;52.358;9.752;2023-02-08T11:46:19;16.50;;;8.85;;
16612;SDS011;8419;52.358;9.752;2023-02-08T11:49:12;18.90;;;9.37;;
16612;SDS011;8419;52.358;9.752;2023-02-08T11:52:06;18.10;;;9.30;;
16612;SDS011;8419;52.358;9.752;2023-02-08T11:55:18;19.90;;;9.63;;
16612;SDS011;8419;52.358;9.752;2023-02-08T11:58:18;15.25;;;9.30;;
16612;SDS011;8419;52.358;9.752;2023-02-08T12:01:16;17.50;;;9.03;;
16612;SDS011;8419;52.358;9.752;2023-02-08T12:04:03;17.02;;;8.88;;
16612;SDS011;8419;52.358;9.752;2023-02-08T12:06:56;13.60;;;8.27;;
16612;SDS011;8419;52.358;9.752;2023-02-08T12:09:57;16.48;;;9.23;;
16612;SDS011;8419;52.358;9.752;2023-02-08T12:13:04;20.25;;;8.93;;
16612;SDS011;8419;52.358;9.752;2023-02-08T12:16:05;14.63;;;7.18;;
16612;SDS011;8419;52.358;9.752;2023-02-08T12:19:08;16.60;;;7.95;;
16612;SDS011;8419;52.358;9.752;2023-02-08T12:22:09;16.15;;;7.50;;
16612;SDS011;8419;52.358;9.752;2023-02-08T12:25:03;13.35;;;7.12;;
16612;SDS011;8419;52.358;9.752;2023-02-08T12:28:04;12.45;;;7.15;;
16612;SDS011;8419;52.358;9.752;2023-02-08T12:30:58;12.27;;;6.35;;
16612;SDS011;8419;52.358;9.752;2023-02-08T12:33:54;12.27;;;7.10;;
16612;SDS011;8419;52.358;9.752;2023-02-08T12:36:55;14.05;;;6.45;;
16612;SDS011;8419;52.358;9.752;2023-02-08T12:40:16;14.77;;;7.65;;
16612;SDS011;8419;52.358;9.752;2023-02-08T12:43:36;14.32;;;6.97;;
16612;SDS011;8419;52.358;9.752;2023-02-08T12:46:35;10.35;;;5.15;;
16612;SDS011;8419;52.358;9.752;2023-02-08T12:49:36;14.63;;;6.37;;
16612;SDS011;8419;52.358;9.752;2023-02-08T12:52:35;10.32;;;6.35;;
16612;SDS011;8419;52.358;9.752;2023-02-08T12:55:23;9.35;;;6.20;;
16612;SDS011;8419;52.358;9.752;2023-02-08T12:58:18;13.10;;;6.95;;
16612;SDS011;8419;52.358;9.752;2023-02-08T13:01:11;10.63;;;5.57;;
16612;SDS011;8419;52.358;9.752;2023-02-08T13:04:02;13.20;;;6.90;;
16612;SDS011;8419;52.358;9.752;2023-02-08T13:06:52;10.20;;;6.00;;
16612;SDS011;8419;52.358;9.752;2023-02-08T13:09:43;8.88;;;6.22;;
16612;SDS011;8419;52.358;9.752;2023-02-08T13:12:40;12.55;;;5.90;;
16612;SDS011;8419;52.358;9.752;2023-02-08T13:15:34;9.73;;;6.15;;
16612;SDS011;8419;52.358;9.752;2023-02-08T13:18:24;12.23;;;5.93;;
16612;SDS011;8419;52.358;9.752;2023-02-08T13:21:15;10.27;;;6.68;;
16612;SDS011;8419;52.358;9.752;2023-02-08T13:24:03;10.32;;;6.72;;
16612;SDS011;8419;52.358;9.752;2023-02-08T13:27:01;9.95;;;5.85;;
16612;SDS011;8419;52.358;9.752;2023-02-08T13:29:50;17.17;;;7.07;;
16612;SDS011;8419;52.358;9.752;2023-02-08T13:32:37;10.68;;;6.10;;
16612;SDS011;8419;52.358;9.752;2023-02-08T13:35:28;9.75;;;6.30;;
16612;SDS011;8419;52.358;9.752;2023-02-08T13:38:27;11.10;;;6.93;;
16612;SDS011;8419;52.358;9.752;2023-02-08T13:41:21;8.43;;;5.45;;
16612;SDS011;8419;52.358;9.752;2023-02-08T13:44:16;10.20;;;6.05;;
16612;SDS011;8419;52.358;9.752;2023-02-08T13:47:20;12.25;;;5.95;;
16612;SDS011;8419;52.358;9.752;2023-02-08T13:56:53;10.63;;;5.75;;
16612;SDS011;8419;52.358;9.752;2023-02-08T13:59:39;7.22;;;5.25;;
16612;SDS011;8419;52.358;9.752;2023-02-08T14:02:25;13.77;;;6.78;;
16612;SDS011;8419;52.358;9.752;2023-02-08T14:05:32;8.48;;;5.50;;
16612;SDS011;8419;52.358;9.752;2023-02-08T14:08:27;12.15;;;5.22;;
16612;SDS011;8419;52.358;9.752;2023-02-08T14:11:19;11.68;;;6.05;;
16612;SDS011;8419;52.358;9.752;2023-02-08T14:14:16;11.30;;;6.03;;
16612;SDS011;8419;52.358;9.752;2023-02-08T14:17:17;9.25;;;4.82;;
16612;SDS011;8419;52.358;9.752;2023-02-08T14:20:06;11.20;;;6.00;;
16612;SDS011;8419;52.358;9.752;2023-02-08T14:23:02;10.07;;;6.12;;
16612;SDS011;8419;52.358;9.752;2023-02-08T14:25:52;11.82;;;6.28;;
16612;SDS011;8419;52.358;9.752;2023-02-08T14:28:43;13.23;;;6.93;;
16612;SDS011;8419;52.358;9.752;2023-02-08T14:31:35;11.75;;;5.75;;
16612;SDS011;8419;52.358;9.752;2023-02-08T14:34:27;15.77;;;6.55;;
16612;SDS011;8419;52.358;9.752;2023-02-08T14:37:26;15.63;;;7.22;;
16612;SDS011;8419;52.358;9.752;2023-02-08T14:43:42;13.00;;;6.60;;
16612;SDS011;8419;52.358;9.752;2023-02-08T14:46:41;11.18;;;5.95;;
16612;SDS011;8419;52.358;9.752;2023-02-08T14:49:27;11.25;;;6.75;;
16612;SDS011;8419;52.358;9.752;2023-02-08T14:52:22;17.45;;;7.62;;
16612;SDS011;8419;52.358;9.752;2023-02-08T14:55:12;11.20;;;6.32;;
16612;SDS011;8419;52.358;9.752;2023-02-08T14:58:01;12.57;;;7.25;;
16612;SDS011;8419;52.358;9.752;2023-02-08T15:00:51;14.05;;;6.65;;
16612;SDS011;8419;52.358;9.752;2023-02-08T15:03:39;16.05;;;7.12;;
16612;SDS011;8419;52.358;9.752;2023-02-08T15:06:49;14.93;;;7.00;;
16612;SDS011;8419;52.358;9.752;2023-02-08T15:09:43;13.25;;;7.12;;
16612;SDS011;8419;52.358;9.752;2023-02-08T15:12:32;18.48;;;9.00;;
16612;SDS011;8419;52.358;9.752;2023-02-08T15:15:25;14.68;;;7.37;;
16612;SDS011;8419;52.358;9.752;2023-02-08T15:18:17;19.00;;;8.80;;
16612;SDS011;8419;52.358;9.752;2023-02-08T15:21:12;21.42;;;11.73;;
16612;SDS011;8419;52.358;9.752;2023-02-08T15:24:00;12.25;;;7.10;;
16612;SDS011;8419;52.358;9.752;2023-02-08T15:26:50;15.60;;;7.85;;
16612;SDS011;8419;52.358;9.752;2023-02-08T15:29:43;13.02;;;7.05;;
16612;SDS011;8419;52.358;9.752;2023-02-08T15:32:32;12.73;;;6.40;;
16612;SDS011;8419;52.358;9.752;2023-02-08T15:35:19;13.93;;;6.20;;
16612;SDS011;8419;52.358;9.752;2023-02-08T15:38:09;14.38;;;5.95;;
16612;SDS011;8419;52.358;9.752;2023-02-08T15:41:00;11.52;;;6.53;;
16612;SDS011;8419;52.358;9.752;2023-02-08T15:43:48;10.10;;;6.65;;
16612;SDS011;8419;52.358;9.752;2023-02-08T15:46:34;13.20;;;6.50;;
16612;SDS011;8419;52.358;9.752;2023-02-08T15:49:21;13.35;;;7.32;;
16612;SDS011;8419;52.358;9.752;2023-02-08T15:52:14;17.12;;;7.72;;
16612;SDS011;8419;52.358;9.752;2023-02-08T15:55:05;11.43;;;6.70;;
16612;SDS011;8419;52.358;9.752;2023-02-08T15:57:56;15.50;;;7.28;;
16612;SDS011;8419;52.358;9.752;2023-02-08T16:00:44;18.12;;;8.50;;
16612;SDS011;8419;52.358;9.752;2023-02-08T16:03:30;12.73;;;7.70;;
16612;SDS011;8419;52.358;9.752;2023-02-08T16:06:19;18.05;;;9.68;;
16612;SDS011;8419;52.358;9.752;2023-02-08T16:09:12;14.73;;;8.57;;
16612;SDS011;8419;52.358;9.752;2023-02-08T16:12:02;15.18;;;7.75;;
16612;SDS011;8419;52.358;9.752;2023-02-08T16:14:49;18.20;;;9.73;;
16612;SDS011;8419;52.358;9.752;2023-02-08T16:17:36;20.05;;;9.40;;
16612;SDS011;8419;52.358;9.752;2023-02-08T16:20:27;19.15;;;10.25;;
16612;SDS011;8419;52.358;9.752;2023-02-08T16:23:21;19.47;;;9.60;;
16612;SDS011;8419;52.358;9.752;2023-02-08T16:26:10;23.17;;;9.77;;
16612;SDS011;8419;52.358;9.752;2023-02-08T16:29:04;20.27;;;9.73;;
16612;SDS011;8419;52.358;9.752;2023-02-08T16:32:00;18.10;;;10.73;;
16612;SDS011;8419;52.358;9.752;2023-02-08T16:34:49;22.57;;;10.40;;
16612;SDS011;8419;52.358;9.752;2023-02-08T16:37:34;22.67;;;10.73;;
16612;SDS011;8419;52.358;9.752;2023-02-08T16:40:38;19.97;;;11.40;;
16612;SDS011;8419;52.358;9.752;2023-02-08T16:43:28;24.00;;;12.20;;
16612;SDS011;8419;52.358;9.752;2023-02-08T16:46:20;21.13;;;11.87;;
16612;SDS011;8419;52.358;9.752;2023-02-08T16:49:09;26.40;;;12.63;;
16612;SDS011;8419;52.358;9.752;2023-02-08T16:51:55;27.00;;;12.23;;
16612;SDS011;8419;52.358;9.752;2023-02-08T16:54:41;26.23;;;12.43;;
16612;SDS011;8419;52.358;9.752;2023-02-08T16:57:37;26.23;;;13.50;;
16612;SDS011;8419;52.358;9.752;2023-02-08T17:00:25;22.77;;;12.43;;
16612;SDS011;8419;52.358;9.752;2023-02-08T17:03:13;20.50;;;12.00;;
16612;SDS011;8419;52.358;9.752;2023-02-08T17:06:10;22.63;;;12.70;;
16612;SDS011;8419;52.358;9.752;2023-02-08T17:09:10;28.73;;;13.40;;
16612;SDS011;8419;52.358;9.752;2023-02-08T17:11:57;24.67;;;12.87;;